Terminal Aerodrome Forecast
Issued by NWS Detroit/Pontiac, MI

Current Version | Previous Version | Text Only | Print | Product List | Glossary On
Versions: 1 2 3 4 5 6 7 8 9 10 11 12 13 14 15 16 17
000
FTUS43 KDTX 281720
TAFFNT
TAF
KFNT 281720Z 2818/2918 23013G20KT P6SM SCT110 BKN250
     FM282200 21009KT P6SM SCT060 OVC100
     FM290300 VRB05KT 6SM -SHRA OVC040
     FM290800 02008KT P6SM BKN022
     FM291200 05012KT P6SM SCT022 BKN040=

USA.gov is the U.S. government's official web portal to all federal, state and local government web resources and services.